Sonic Adventure (DX): Overall Rankings

Records: Times | Rings | Scores | Races | Bosses | Freestyle
Leaders: Times | Rings | Scores | Races | Bosses | Freestyle | Overall
Rank Player Percent Points Date
1 Gamepro011 97.7% 398 03-23-20
2 Sonicspeedruner 97.7% 405 03-23-20
3 DarkPolarNight 96.4% 643 03-23-20
4 Jawzun 92.7% 1296 03-23-20
5 Dashjump 91.2% 1579 03-23-20
6 Avento128bits 89.2% 1933 03-23-20
7 DarkspinesSonic 89.2% 1938 03-23-20
8 ike6252 88.9% 1980 03-23-20
9 F-Man 87.1% 2316 03-23-20
10 Coolfansonic 86.9% 2340 03-23-20
11 TheRealShadnic 84.7% 2751 03-23-20
12 HyperSonic7701 83.7% 2923 03-23-20
13 yoshifan 82.1% 3213 03-23-20
14 frankoredstrato 81.6% 3305 03-23-20
15 Nim 80.9% 3434 03-23-20
16 francisco 80.6% 3476 03-23-20
17 Marth 80.4% 3522 03-23-20
18 InferSaime 79.1% 3747 03-23-20
19 PfoSonic 78.7% 3832 03-23-20
20 Paragod 78.2% 3911 03-23-20
21 THC98 77.4% 4059 03-23-20
22 Stefan 75.0% 4495 03-23-20
23 Dekuboy 73.7% 4714 03-23-20
24 RPGnutter 72.9% 4865 03-23-20
25 bertin 72.7% 4900 03-23-20
26 sonicam 70.7% 5264 03-23-20
27 drminus 69.1% 5542 03-23-20
28 chaos shadow 68.6% 5632 03-23-20
29 chainchump 65.5% 6205 03-23-20
30 Combo 64.6% 6352 03-23-20
31 SkyLights 63.4% 6569 03-23-20
32 xXMegaManXx 61.9% 6849 03-23-20
33 Diamond 61.6% 6903 03-23-20
34 Auriman1 59.3% 7305 03-23-20
35 GerbilSoft 59.3% 7307 03-23-20
36 OmegaDJ 59.3% 7316 03-23-20
37 magnum12 58.5% 7455 03-23-20
38 Thorn 56.3% 7857 03-23-20
39 P1 Pause 56.0% 7904 03-23-20
40 mike89 54.9% 8104 03-23-20
41 Dave Cramer 53.1% 8433 03-23-20
42 Groudon199 52.9% 8458 03-23-20
43 Parax 52.6% 8516 03-23-20
44 Shadow Jacky 51.8% 8655 03-23-20
45 SPVLABS 51.8% 8661 03-23-20
46 Zurggriff 48.3% 9291 03-23-20
47 Psymar 46.8% 9560 03-23-20
48 Niczur 46.1% 9685 03-23-20
49 Arch 46.0% 9706 03-23-20
50 Chao_Fan 45.1% 9869 03-23-20
51 mauserman 44.7% 9945 03-23-20
52 Quartz 43.9% 10084 03-23-20
53 teamblackarms 43.3% 10190 03-23-20
54 Psyknux 42.7% 10302 03-23-20
55 James_Bertolli 42.1% 10407 03-23-20
56 Cyan Ryan 42.0% 10424 03-23-20
57 NintenDan 41.7% 10476 03-23-20
58 Turbos 41.1% 10593 03-23-20
59 Webber3000 41.1% 10596 03-23-20
60 Ring Rush 41.0% 10606 03-23-20
61 Fr3nZy 40.9% 10618 03-23-20
62 Cream147 40.7% 10663 03-23-20
63 videogamemaster777 40.5% 10700 03-23-20
64 Siavash Tazari 40.5% 10701 03-23-20
65 buddychaos0415 39.9% 10802 03-23-20
66 SadisticMystic 39.5% 10870 03-23-20
67 ethmar 39.3% 10913 03-23-20
68 eggFL 38.5% 11064 03-23-20
69 Calfd 37.9% 11161 03-23-20
70 SB737 36.9% 11350 03-23-20
71 supersonic465 36.4% 11432 03-23-20
72 supersonicfan 35.8% 11540 03-23-20
73 FuzZerd 34.7% 11745 03-23-20
74 Aitamen 34.3% 11820 03-23-20
75 BigAL49 33.8% 11897 03-23-20
76 elecmouse101 33.7% 11913 03-23-20
77 danieldude 33.7% 11918 03-23-20
78 Austinf 33.4% 11975 03-23-20
79 metanightmare22 32.6% 12122 03-23-20
80 dabestgamer 32.2% 12195 03-23-20
81 MiStEr_ShAoLiN 32.0% 12234 03-23-20
82 Andrea Ritsu 31.3% 12351 03-23-20
83 itsPersonnal 31.2% 12373 03-23-20
84 Cybrax 30.4% 12512 03-23-20
85 WeegeeZV 30.2% 12549 03-23-20
86 SilvertheAlmighty 30.1% 12567 03-23-20
87 JamminX42 30.1% 12572 03-23-20
88 Mastakirby 29.8% 12613 03-23-20
89 VMU Player Banned 28.4% 12874 03-23-20
90 CoEmpathy 28.0% 12942 03-23-20
91 Omega Rafael Santos 27.9% 12965 03-23-20
92 Staf 27.6% 13010 03-23-20
93 The T 27.3% 13078 03-23-20
94 EngiNerd 27.0% 13122 03-23-20
95 lordmetalsonic 26.6% 13200 03-23-20
96 Hipertails12 26.5% 13214 03-23-20
97 welldooder64 26.0% 13311 03-23-20
98 GreatStar 25.9% 13325 03-23-20
99 The Great Lord Mick 25.6% 13381 03-23-20
100 Sondow 25.5% 13398 03-23-20
101 LinksDarkArrows 25.3% 13425 03-23-20
102 Skylace 24.5% 13578 03-23-20
103 a_moustache 23.7% 13715 03-23-20
104 Rolken 22.9% 13864 03-23-20
105 Xia 21.3% 14155 03-23-20
106 Spinballwizard 21.3% 14156 03-23-20
107 Kogen Player Banned 21.2% 14175 03-23-20
108 Don 21.0% 14212 03-23-20
109 f0rever_zer0 20.9% 14230 03-23-20
110 Miles9999 20.8% 14241 03-23-20
111 Game_Complete 20.8% 14246 03-23-20
111 Twilisailor 20.8% 14246 03-23-20
113 iden1 20.7% 14265 03-23-20
114 Cutiefox 20.6% 14271 03-23-20
115 andres430 20.0% 14391 03-23-20
116 Cruizer 19.8% 14422 03-23-20
117 iSonicKid2K 19.6% 14450 03-23-20
118 SADXTryHard 19.5% 14469 03-23-20
119 N 19.0% 14571 03-23-20
120 GarnetPrincess 18.9% 14580 03-23-20
121 AxlThunder 18.7% 14625 03-23-20
122 knuckles_sonic8 18.3% 14694 03-23-20
123 KinkyCadence 17.8% 14777 03-23-20
124 Team_Yoshi 17.8% 14784 03-23-20
125 The Knuckles Chao 17.7% 14799 03-23-20
126 Termon 17.5% 14831 03-23-20
127 LittleBigness 17.3% 14870 03-23-20
128 SonicWinDX 17.3% 14879 03-23-20
129 FoxBoy 17.2% 14893 03-23-20
130 Drakodan 16.5% 15011 03-23-20
131 Sonic Singularity 15.4% 15218 03-23-20
132 Pokemonmaster888 15.2% 15243 03-23-20
133 paulie9990 14.7% 15335 03-23-20
134 SilverSonic 14.2% 15435 03-23-20
135 MPit08 13.9% 15480 03-23-20
136 Mo Player Banned 13.8% 15499 03-23-20
137 koinu93 13.5% 15551 03-23-20
138 Cod4Scopes 13.2% 15604 03-23-20
139 Jerzia 13.1% 15621 03-23-20
140 Hunters13 13.1% 15633 03-23-20
141 HyperSonic64 13.0% 15642 03-23-20
142 booo95 12.8% 15674 03-23-20
143 Chawkk 12.8% 15679 03-23-20
144 SuperSonic101 12.6% 15708 03-23-20
145 Maxinfamily 12.5% 15727 03-23-20
146 R3FR4G 12.5% 15728 03-23-20
147 PsyBorg 12.3% 15766 03-23-20
148 Kanimayo_Jp 12.2% 15781 03-23-20
149 Flying Fox 12.2% 15788 03-23-20
150 LilZero 12.2% 15794 03-23-20
151 BrokenArthritis 12.1% 15814 03-23-20
152 Therio 11.7% 15882 03-23-20
153 sonicspeed 11.4% 15937 03-23-20
154 SonicAD 11.3% 15949 03-23-20
155 douglas 11.2% 15965 03-23-20
156 thewaytodawnnn 11.1% 15984 03-23-20
157 Matt_TY 11.0% 16007 03-23-20
158 ModifiedMonkee 11.0% 16009 03-23-20
159 SuperBlitzCraig 10.4% 16111 03-23-20
160 Cooljay 10.4% 16114 03-23-20
160 joecoolgames 10.4% 16114 03-23-20
162 SeaWolf 10.3% 16127 03-23-20
163 videogamer1014 10.1% 16173 03-23-20
164 AC-Tygo 9.8% 16216 03-23-20
165 welshmoose05 9.8% 16228 03-23-20
166 OddCook 9.5% 16265 03-23-20
167 TFEC Headshot 9.5% 16269 03-23-20
168 crazy1993 9.5% 16275 03-23-20
169 Mariobutch 9.5% 16280 03-23-20
170 Mcshuggets 9.4% 16297 03-23-20
171 Irregular Zero 9.0% 16359 03-23-20
172 niscool 9.0% 16372 03-23-20
173 nuckrieg 8.9% 16373 03-23-20
174 Shadowthegreat 8.6% 16429 03-23-20
175 superjupi 8.6% 16431 03-23-20
176 SirTobbii 8.6% 16433 03-23-20
177 Powerjohn25 8.4% 16471 03-23-20
178 sonamyfan666 8.3% 16481 03-23-20
179 SaviourDC 8.3% 16487 03-23-20
180 iarebored 8.3% 16488 03-23-20
181 Badlex727 8.2% 16500 03-23-20
182 SonicKnuckles 8.2% 16505 03-23-20
183 Werey 8.1% 16528 03-23-20
184 adf 7.9% 16569 03-23-20
185 Megaman EXE565 7.6% 16620 03-23-20
186 ArcticDragon 7.5% 16630 03-23-20
187 Platformer 7.3% 16675 03-23-20
188 timpkmn89 7.1% 16697 03-23-20
189 Swift Hobo 7.1% 16698 03-23-20
190 FocusSight64 7.1% 16701 03-23-20
191 Vicklaw 7.0% 16717 03-23-20
192 wheatrich 6.9% 16736 03-23-20
193 Rickyman48 6.9% 16745 03-23-20
194 Sm4sh 6.7% 16783 03-23-20
195 KitsuneYamaro 6.7% 16784 03-23-20
196 Triseena 6.4% 16826 03-23-20
197 Starlight Sable 6.3% 16847 03-23-20
198 CyberShadow 6.3% 16850 03-23-20
199 Destroyer121121 6.3% 16856 03-23-20
200 slade23 6.2% 16859 03-23-20
201 dShadow 6.2% 16875 03-23-20
202 IsisDazs 6.1% 16882 03-23-20
203 BlankTH 5.9% 16926 03-23-20
204 Monkeh 5.7% 16955 03-23-20
205 Zethor 5.6% 16979 03-23-20
206 SonicU260 5.5% 16989 03-23-20
207 Richied 5.5% 16993 03-23-20
208 Swinkly 5.5% 16996 03-23-20
209 DaDude 5.5% 16998 03-23-20
210 Crispian 5.5% 17002 03-23-20
211 sonicd5 5.4% 17011 03-23-20
212 Zip 5.3% 17027 03-23-20
213 VeritasDL 5.2% 17047 03-23-20
214 tal39h 5.0% 17084 03-23-20
215 Kirbymon30 4.9% 17095 03-23-20
216 ALundstrom10 4.9% 17096 03-23-20
217 soniccoloursunleashed 4.7% 17131 03-23-20
218 Drflash55 4.7% 17142 03-23-20
219 Bass 4.6% 17163 03-23-20
220 Yish 4.5% 17169 03-23-20
221 neaolas 4.5% 17173 03-23-20
222 zapp 4.5% 17179 03-23-20
223 UninspiredUsername 4.5% 17181 03-23-20
224 Sonicsuperstar1 4.4% 17189 03-23-20
225 superiorsonic 4.4% 17192 03-23-20
226 gamefreak1292 4.3% 17202 03-23-20
227 Sora_yx 4.2% 17232 03-23-20
228 Chaos_Overlord 4.0% 17269 03-23-20
229 TakaRikka 3.9% 17283 03-23-20
230 Valfore 3.9% 17287 03-23-20
231 Dage4Aquatic 3.8% 17304 03-23-20
232 ShinigamiMachine 3.7% 17315 03-23-20
233 Regano1000 3.6% 17333 03-23-20
234 MK 3.5% 17351 03-23-20
235 Ace747 3.5% 17362 03-23-20
236 Jua Rever 3.3% 17392 03-23-20
237 Venick409 3.1% 17431 03-23-20
238 HHNNBBHHN 3.1% 17434 03-23-20
238 Illidan 3.1% 17434 03-23-20
240 Brian_pso 3.0% 17436 03-23-20
241 nman36 3.0% 17443 03-23-20
241 Sithwarrior26 3.0% 17443 03-23-20
243 ArthurVGCP 2.9% 17469 03-23-20
244 Egor305 2.9% 17470 03-23-20
245 ingx24 2.8% 17472 03-23-20
246 TheChaosEmeraIds 2.8% 17474 03-23-20
247 Nickson98 2.8% 17485 03-23-20
248 SkyBon 2.8% 17487 03-23-20
249 FSSRandomvids 2.7% 17490 03-23-20
250 dekki1234 2.7% 17494 03-23-20
251 Fozer 2.7% 17505 03-23-20
252 sonic29887 2.6% 17510 03-23-20
253 Colomb_30 2.6% 17517 03-23-20
254 Aiko 2.6% 17518 03-23-20
255 TheUltraBlur 2.6% 17519 03-23-20
256 1stKirbyever 2.5% 17528 03-23-20
257 TimTH 2.4% 17546 03-23-20
258 Th4tN1nj4Turtl3 2.3% 17571 03-23-20
259 Cort_pso 2.3% 17577 03-23-20
260 Doom-9 2.2% 17586 03-23-20
261 ieatatsonic 2.2% 17588 03-23-20
262 Mariosonic15 2.1% 17597 03-23-20
263 MStitomix 2.1% 17607 03-23-20
264 HermitHelmet 2.1% 17614 03-23-20
265 arcfx1985 2.0% 17617 03-23-20
266 SuperSonic71087 2.0% 17628 03-23-20
267 Got4n 1.9% 17634 03-23-20
268 Artie 1.9% 17635 03-23-20
269 Questionguy555 1.9% 17636 03-23-20
270 Jose_15 1.9% 17643 03-23-20
271 djmat 1.8% 17654 03-23-20
272 SuperSonicfan9595 1.8% 17662 03-23-20
273 sonicandamy Player Banned 1.7% 17678 03-23-20
274 LancexExWx 1.7% 17685 03-23-20
275 Paixii 1.6% 17688 03-23-20
276 son1cgu1tar 1.6% 17693 03-23-20
277 Heroes_Hater 1.6% 17702 03-23-20
278 BallzeH 1.5% 17709 03-23-20
279 Jamixesa 1.5% 17715 03-23-20
280 Mankster101 1.5% 17716 03-23-20
281 BecauseWarAnvil 1.4% 17723 03-23-20
282 Shanekilz 1.4% 17729 03-23-20
283 Crydio 1.4% 17730 03-23-20
284 SpiritDragon1995 1.4% 17732 03-23-20
285 MarewBFN 1.3% 17747 03-23-20
286 stanski 1.3% 17750 03-23-20
287 Sonique Hedgehog 1.3% 17754 03-23-20
288 Blue Infamy 1.2% 17766 03-23-20
289 p0ker 1.2% 17769 03-23-20
290 ErrortheCucco 1.1% 17777 03-23-20
291 Rikum22 1.1% 17780 03-23-20
292 Arthas 1.1% 17781 03-23-20
293 sonic1001 1.1% 17788 03-23-20
294 AJSIV 1.0% 17795 03-23-20
294 syco1098 1.0% 17795 03-23-20
296 IDGeek121 1.0% 17799 03-23-20
296 Sonic the Hedgehod16 1.0% 17799 03-23-20
296 WingedInsignia 1.0% 17799 03-23-20
299 ASINISTERTACO 1.0% 17807 03-23-20
300 sonicfan9 1.0% 17810 03-23-20
301 themachoman202 0.9% 17822 03-23-20
302 BlackArmsShadow 0.9% 17823 03-23-20
303 shadowblast63 Player Banned 0.9% 17829 03-23-20
304 Fivavoa 0.8% 17831 03-23-20
305 Ben1502 0.8% 17833 03-23-20
305 MastaToken 0.8% 17833 03-23-20
305 Mr. Jones 0.8% 17833 03-23-20
305 TommyeAsY 0.8% 17833 03-23-20
309 darkstarblaze 0.8% 17834 03-23-20
310 Greham Adelphis 0.8% 17835 03-23-20
311 ptorflaxendrosis 0.8% 17841 03-23-20
312 FlandreScarlet9999vr 0.8% 17843 03-23-20
313 Gvozdevik 0.8% 17844 03-23-20
314 Knuckles 0.8% 17846 03-23-20
314 Zeldocto 0.8% 17846 03-23-20
316 BeeAwwb 0.7% 17852 03-23-20
317 KaM Mark MaK 0.7% 17854 03-23-20
318 ShadouZaHejjihoggu 0.7% 17857 03-23-20
319 Sogeking 0.7% 17865 03-23-20
319 Sonic The Star 0.7% 17865 03-23-20
321 darkersupershadic 0.7% 17866 03-23-20
322 Sonic62 0.6% 17870 03-23-20
323 Sarger001 0.6% 17873 03-23-20
324 Grady219 0.6% 17875 03-23-20
325 dragondragon18 0.6% 17876 03-23-20
325 SonicK100 0.6% 17876 03-23-20
327 Shadygamerfreak 0.6% 17877 03-23-20
328 Jawaah 0.6% 17880 03-23-20
329 Antek 0.6% 17884 03-23-20
329 SpinDashMaster 0.6% 17884 03-23-20
331 Klaus 0.5% 17886 03-23-20
332 SilverK 0.5% 17889 03-23-20
333 BioShadow 0.5% 17892 03-23-20
334 Videogamer123 0.5% 17899 03-23-20
335 IcKY 0.5% 17902 03-23-20
336 oTaiIilLsS 0.4% 17909 03-23-20
337 isaihtb11 0.4% 17913 03-23-20
338 OhNoes! 0.4% 17914 03-23-20
339 Mad Andy 0.4% 17915 03-23-20
340 zaktu40 0.4% 17916 03-23-20
341 S-MS32X-S 0.4% 17917 03-23-20
342 gaara1234 0.4% 17919 03-23-20
343 gamed00d 0.3% 17924 03-23-20
344 Mister_Slick 0.3% 17930 03-23-20
345 Sonic06Fan 0.3% 17933 03-23-20
346 Rush Hero 0.3% 17935 03-23-20
347 ChaosNexuss 0.3% 17936 03-23-20
348 SonicMega167 0.2% 17941 03-23-20
349 Iwannabelink 0.2% 17944 03-23-20
350 sonknuck23 0.2% 17945 03-23-20
351 DanielTheFalcon 0.2% 17953 03-23-20
351 gamer1245 0.2% 17953 03-23-20
353 Burningskull123 0.1% 17960 03-23-20
354 Sonicontherun 0.1% 17971 03-23-20
355 Lil_Dude 0.1% 17973 03-23-20
356 antiwwe 0.0% 17977 03-23-20
357 Cbwade15 0.0% 17981 03-23-20
357 Genuine Hedgehog 0.0% 17981 03-23-20
359 Tyrouble 0.0% 17985 03-23-20
360 MakoHNM 0.0% 17992 03-23-20
360 MegabombBlade 0.0% 17992 03-23-20
360 neji_hyuuga 0.0% 17992 03-23-20
360 Over 0.0% 17992 03-23-20
360 sdj6707 Player Banned 0.0% 17992 03-23-20
360 Tran Sonic Fan Player Banned 0.0% 17992 03-23-20

This page is using the New Data Table System. [FUTURE]

Game ID: 3 | Category ID: 10
Hits: 78,375 | Hits This Month: 8 | DB Calls: 21 | Mem Usage: 1.06 MB | Time: 0.04s | Printable

The Sonic Center v3.9
Copyright 2003-2011 by The Sonic Center Team.